sensor_id;sensor_type;location;lat;lon;timestamp;P1;durP1;ratioP1;P2;durP2;ratioP2
16593;SDS011;8410;52.532;13.336;2023-08-17T00:02:26;3.78;;;2.50;;
16593;SDS011;8410;52.532;13.336;2023-08-17T00:04:53;4.28;;;2.42;;
16593;SDS011;8410;52.532;13.336;2023-08-17T00:07:21;3.88;;;2.72;;
16593;SDS011;8410;52.532;13.336;2023-08-17T00:09:49;3.25;;;2.30;;
16593;SDS011;8410;52.532;13.336;2023-08-17T00:12:16;5.50;;;3.05;;
16593;SDS011;8410;52.532;13.336;2023-08-17T00:14:44;3.72;;;2.35;;
16593;SDS011;8410;52.532;13.336;2023-08-17T00:17:13;3.38;;;2.40;;
16593;SDS011;8410;52.532;13.336;2023-08-17T00:19:40;6.07;;;2.47;;
16593;SDS011;8410;52.532;13.336;2023-08-17T00:22:08;7.00;;;2.42;;
16593;SDS011;8410;52.532;13.336;2023-08-17T00:24:35;3.42;;;2.55;;
16593;SDS011;8410;52.532;13.336;2023-08-17T00:27:03;3.63;;;2.72;;
16593;SDS011;8410;52.532;13.336;2023-08-17T00:29:31;7.35;;;2.72;;
16593;SDS011;8410;52.532;13.336;2023-08-17T00:32:01;6.05;;;2.70;;
16593;SDS011;8410;52.532;13.336;2023-08-17T00:34:30;3.08;;;2.55;;
16593;SDS011;8410;52.532;13.336;2023-08-17T00:36:57;3.65;;;2.97;;
16593;SDS011;8410;52.532;13.336;2023-08-17T00:39:25;2.97;;;2.45;;
16593;SDS011;8410;52.532;13.336;2023-08-17T00:41:52;3.67;;;2.58;;
16593;SDS011;8410;52.532;13.336;2023-08-17T00:44:20;3.85;;;2.63;;
16593;SDS011;8410;52.532;13.336;2023-08-17T00:46:47;6.47;;;2.97;;
16593;SDS011;8410;52.532;13.336;2023-08-17T00:49:15;4.25;;;2.50;;
16593;SDS011;8410;52.532;13.336;2023-08-17T00:51:44;3.63;;;2.53;;
16593;SDS011;8410;52.532;13.336;2023-08-17T00:54:11;4.07;;;3.03;;
16593;SDS011;8410;52.532;13.336;2023-08-17T00:56:40;6.70;;;2.80;;
16593;SDS011;8410;52.532;13.336;2023-08-17T00:59:07;6.95;;;3.17;;
16593;SDS011;8410;52.532;13.336;2023-08-17T01:01:35;5.47;;;2.80;;
16593;SDS011;8410;52.532;13.336;2023-08-17T01:04:03;3.75;;;2.72;;
16593;SDS011;8410;52.532;13.336;2023-08-17T01:06:31;6.85;;;2.85;;
16593;SDS011;8410;52.532;13.336;2023-08-17T01:09:00;5.10;;;2.50;;
16593;SDS011;8410;52.532;13.336;2023-08-17T01:11:28;4.55;;;2.88;;
16593;SDS011;8410;52.532;13.336;2023-08-17T01:14:01;4.20;;;3.03;;
16593;SDS011;8410;52.532;13.336;2023-08-17T01:16:33;7.75;;;3.33;;
16593;SDS011;8410;52.532;13.336;2023-08-17T01:19:06;7.10;;;2.80;;
16593;SDS011;8410;52.532;13.336;2023-08-17T01:21:37;5.40;;;2.97;;
16593;SDS011;8410;52.532;13.336;2023-08-17T01:24:11;5.43;;;2.70;;
16593;SDS011;8410;52.532;13.336;2023-08-17T01:26:39;5.80;;;2.85;;
16593;SDS011;8410;52.532;13.336;2023-08-17T01:29:06;4.65;;;2.85;;
16593;SDS011;8410;52.532;13.336;2023-08-17T01:31:36;7.40;;;3.08;;
16593;SDS011;8410;52.532;13.336;2023-08-17T01:34:10;5.22;;;2.78;;
16593;SDS011;8410;52.532;13.336;2023-08-17T01:36:46;5.43;;;3.40;;
16593;SDS011;8410;52.532;13.336;2023-08-17T01:39:20;5.65;;;2.97;;
16593;SDS011;8410;52.532;13.336;2023-08-17T01:41:53;4.85;;;3.65;;
16593;SDS011;8410;52.532;13.336;2023-08-17T01:44:25;3.90;;;2.90;;
16593;SDS011;8410;52.532;13.336;2023-08-17T01:46:53;5.55;;;2.90;;
16593;SDS011;8410;52.532;13.336;2023-08-17T01:49:21;7.30;;;3.03;;
16593;SDS011;8410;52.532;13.336;2023-08-17T01:51:48;4.22;;;3.17;;
16593;SDS011;8410;52.532;13.336;2023-08-17T01:54:16;4.57;;;3.30;;
16593;SDS011;8410;52.532;13.336;2023-08-17T01:56:45;7.15;;;2.97;;
16593;SDS011;8410;52.532;13.336;2023-08-17T01:59:12;5.40;;;3.00;;
16593;SDS011;8410;52.532;13.336;2023-08-17T02:01:40;4.10;;;3.05;;
16593;SDS011;8410;52.532;13.336;2023-08-17T02:04:07;4.63;;;2.90;;
16593;SDS011;8410;52.532;13.336;2023-08-17T02:06:35;4.38;;;3.15;;
16593;SDS011;8410;52.532;13.336;2023-08-17T02:09:02;5.07;;;2.95;;
16593;SDS011;8410;52.532;13.336;2023-08-17T02:11:30;5.13;;;3.10;;
16593;SDS011;8410;52.532;13.336;2023-08-17T02:13:59;4.13;;;3.05;;
16593;SDS011;8410;52.532;13.336;2023-08-17T02:16:26;5.78;;;3.17;;
16593;SDS011;8410;52.532;13.336;2023-08-17T02:18:54;4.13;;;3.03;;
16593;SDS011;8410;52.532;13.336;2023-08-17T02:21:21;5.90;;;3.20;;
16593;SDS011;8410;52.532;13.336;2023-08-17T02:23:49;5.32;;;2.78;;
16593;SDS011;8410;52.532;13.336;2023-08-17T02:26:16;4.95;;;3.10;;
16593;SDS011;8410;52.532;13.336;2023-08-17T02:28:43;4.63;;;3.15;;
16593;SDS011;8410;52.532;13.336;2023-08-17T02:31:12;4.30;;;2.88;;
16593;SDS011;8410;52.532;13.336;2023-08-17T02:33:40;6.00;;;3.00;;
16593;SDS011;8410;52.532;13.336;2023-08-17T02:36:08;4.95;;;3.25;;
16593;SDS011;8410;52.532;13.336;2023-08-17T02:38:35;7.63;;;3.10;;
16593;SDS011;8410;52.532;13.336;2023-08-17T02:41:03;5.93;;;3.38;;
16593;SDS011;8410;52.532;13.336;2023-08-17T02:43:30;3.75;;;3.20;;
16593;SDS011;8410;52.532;13.336;2023-08-17T02:45:58;6.80;;;3.17;;
16593;SDS011;8410;52.532;13.336;2023-08-17T02:48:27;8.18;;;3.22;;
16593;SDS011;8410;52.532;13.336;2023-08-17T02:50:58;4.80;;;3.72;;
16593;SDS011;8410;52.532;13.336;2023-08-17T02:53:25;4.68;;;2.90;;
16593;SDS011;8410;52.532;13.336;2023-08-17T02:55:53;7.63;;;3.25;;
16593;SDS011;8410;52.532;13.336;2023-08-17T02:58:20;6.80;;;3.15;;
16593;SDS011;8410;52.532;13.336;2023-08-17T03:00:48;4.55;;;3.50;;
16593;SDS011;8410;52.532;13.336;2023-08-17T03:03:18;4.38;;;3.13;;
16593;SDS011;8410;52.532;13.336;2023-08-17T03:05:47;4.90;;;3.03;;
16593;SDS011;8410;52.532;13.336;2023-08-17T03:08:14;5.32;;;3.00;;
16593;SDS011;8410;52.532;13.336;2023-08-17T03:10:41;6.78;;;3.03;;
16593;SDS011;8410;52.532;13.336;2023-08-17T03:13:09;4.22;;;2.83;;
16593;SDS011;8410;52.532;13.336;2023-08-17T03:15:36;5.18;;;3.05;;
16593;SDS011;8410;52.532;13.336;2023-08-17T03:18:06;4.40;;;3.08;;
16593;SDS011;8410;52.532;13.336;2023-08-17T03:20:34;3.30;;;3.00;;
16593;SDS011;8410;52.532;13.336;2023-08-17T03:23:03;4.07;;;2.75;;
16593;SDS011;8410;52.532;13.336;2023-08-17T03:25:32;5.10;;;3.25;;
16593;SDS011;8410;52.532;13.336;2023-08-17T03:28:00;4.40;;;3.05;;
16593;SDS011;8410;52.532;13.336;2023-08-17T03:30:27;4.03;;;2.47;;
16593;SDS011;8410;52.532;13.336;2023-08-17T03:32:55;4.05;;;2.67;;
16593;SDS011;8410;52.532;13.336;2023-08-17T03:35:22;6.47;;;2.70;;
16593;SDS011;8410;52.532;13.336;2023-08-17T03:37:50;4.63;;;2.85;;
16593;SDS011;8410;52.532;13.336;2023-08-17T03:40:19;5.43;;;2.50;;
16593;SDS011;8410;52.532;13.336;2023-08-17T03:42:46;4.13;;;2.72;;
16593;SDS011;8410;52.532;13.336;2023-08-17T03:45:14;3.45;;;2.42;;
16593;SDS011;8410;52.532;13.336;2023-08-17T03:47:42;3.78;;;2.35;;
16593;SDS011;8410;52.532;13.336;2023-08-17T03:50:09;5.35;;;2.22;;
16593;SDS011;8410;52.532;13.336;2023-08-17T03:52:37;4.65;;;2.42;;
16593;SDS011;8410;52.532;13.336;2023-08-17T03:55:05;4.00;;;2.25;;
16593;SDS011;8410;52.532;13.336;2023-08-17T03:57:35;3.08;;;1.92;;
16593;SDS011;8410;52.532;13.336;2023-08-17T04:00:05;3.25;;;2.10;;
16593;SDS011;8410;52.532;13.336;2023-08-17T04:02:33;5.68;;;2.30;;
16593;SDS011;8410;52.532;13.336;2023-08-17T04:05:00;2.63;;;2.00;;
16593;SDS011;8410;52.532;13.336;2023-08-17T04:07:28;6.22;;;2.15;;
16593;SDS011;8410;52.532;13.336;2023-08-17T04:09:56;2.85;;;1.90;;
16593;SDS011;8410;52.532;13.336;2023-08-17T04:12:23;3.45;;;2.20;;
16593;SDS011;8410;52.532;13.336;2023-08-17T04:14:52;6.28;;;2.30;;
16593;SDS011;8410;52.532;13.336;2023-08-17T04:17:19;3.28;;;2.40;;
16593;SDS011;8410;52.532;13.336;2023-08-17T04:19:47;4.28;;;2.10;;
16593;SDS011;8410;52.532;13.336;2023-08-17T04:22:15;4.35;;;2.22;;
16593;SDS011;8410;52.532;13.336;2023-08-17T04:24:42;2.33;;;1.92;;
16593;SDS011;8410;52.532;13.336;2023-08-17T04:27:10;3.60;;;2.30;;
16593;SDS011;8410;52.532;13.336;2023-08-17T04:29:39;4.43;;;2.00;;
16593;SDS011;8410;52.532;13.336;2023-08-17T04:32:07;4.30;;;2.10;;
16593;SDS011;8410;52.532;13.336;2023-08-17T04:34:41;3.92;;;2.17;;
16593;SDS011;8410;52.532;13.336;2023-08-17T04:37:08;5.68;;;2.40;;
16593;SDS011;8410;52.532;13.336;2023-08-17T04:39:36;3.08;;;2.20;;
16593;SDS011;8410;52.532;13.336;2023-08-17T04:42:04;4.07;;;2.20;;
16593;SDS011;8410;52.532;13.336;2023-08-17T04:44:31;3.45;;;2.33;;
16593;SDS011;8410;52.532;13.336;2023-08-17T04:46:59;3.17;;;2.17;;
16593;SDS011;8410;52.532;13.336;2023-08-17T04:49:28;4.45;;;2.00;;
16593;SDS011;8410;52.532;13.336;2023-08-17T04:51:55;2.03;;;1.73;;
16593;SDS011;8410;52.532;13.336;2023-08-17T04:54:23;4.70;;;2.05;;
16593;SDS011;8410;52.532;13.336;2023-08-17T04:56:51;4.18;;;2.30;;
16593;SDS011;8410;52.532;13.336;2023-08-17T04:59:19;4.63;;;2.30;;
16593;SDS011;8410;52.532;13.336;2023-08-17T05:01:46;3.05;;;2.00;;
16593;SDS011;8410;52.532;13.336;2023-08-17T05:04:14;6.90;;;2.25;;
16593;SDS011;8410;52.532;13.336;2023-08-17T05:06:42;4.57;;;2.10;;
16593;SDS011;8410;52.532;13.336;2023-08-17T05:09:10;3.90;;;2.38;;
16593;SDS011;8410;52.532;13.336;2023-08-17T05:11:37;4.45;;;2.15;;
16593;SDS011;8410;52.532;13.336;2023-08-17T05:14:05;5.60;;;2.63;;
16593;SDS011;8410;52.532;13.336;2023-08-17T05:16:32;4.63;;;2.05;;
16593;SDS011;8410;52.532;13.336;2023-08-17T05:19:00;3.10;;;1.90;;
16593;SDS011;8410;52.532;13.336;2023-08-17T05:21:27;2.58;;;2.05;;
16593;SDS011;8410;52.532;13.336;2023-08-17T05:23:57;4.07;;;2.40;;
16593;SDS011;8410;52.532;13.336;2023-08-17T05:26:24;3.78;;;2.30;;
16593;SDS011;8410;52.532;13.336;2023-08-17T05:28:52;5.10;;;3.60;;
16593;SDS011;8410;52.532;13.336;2023-08-17T05:31:19;4.32;;;2.63;;
16593;SDS011;8410;52.532;13.336;2023-08-17T05:33:47;5.93;;;2.20;;
16593;SDS011;8410;52.532;13.336;2023-08-17T05:36:14;4.18;;;2.45;;
16593;SDS011;8410;52.532;13.336;2023-08-17T05:38:42;3.45;;;2.10;;
16593;SDS011;8410;52.532;13.336;2023-08-17T05:41:10;3.47;;;2.45;;
16593;SDS011;8410;52.532;13.336;2023-08-17T05:43:38;4.80;;;2.30;;
16593;SDS011;8410;52.532;13.336;2023-08-17T05:46:05;3.00;;;2.35;;
16593;SDS011;8410;52.532;13.336;2023-08-17T05:48:33;4.00;;;2.60;;
16593;SDS011;8410;52.532;13.336;2023-08-17T05:51:00;4.60;;;2.05;;
16593;SDS011;8410;52.532;13.336;2023-08-17T05:53:28;8.15;;;3.42;;
16593;SDS011;8410;52.532;13.336;2023-08-17T05:55:55;8.27;;;2.78;;
16593;SDS011;8410;52.532;13.336;2023-08-17T05:58:24;4.47;;;2.00;;
16593;SDS011;8410;52.532;13.336;2023-08-17T06:00:52;3.47;;;2.00;;
16593;SDS011;8410;52.532;13.336;2023-08-17T06:03:19;3.92;;;2.33;;
16593;SDS011;8410;52.532;13.336;2023-08-17T06:05:47;3.08;;;2.03;;
16593;SDS011;8410;52.532;13.336;2023-08-17T06:08:14;6.78;;;2.40;;
16593;SDS011;8410;52.532;13.336;2023-08-17T06:10:41;3.00;;;2.20;;
16593;SDS011;8410;52.532;13.336;2023-08-17T06:13:09;5.25;;;3.83;;
16593;SDS011;8410;52.532;13.336;2023-08-17T06:15:38;3.35;;;2.30;;
16593;SDS011;8410;52.532;13.336;2023-08-17T06:18:05;2.70;;;2.13;;
16593;SDS011;8410;52.532;13.336;2023-08-17T06:20:33;5.35;;;2.42;;
16593;SDS011;8410;52.532;13.336;2023-08-17T06:23:00;2.88;;;2.58;;
16593;SDS011;8410;52.532;13.336;2023-08-17T06:25:28;4.95;;;2.70;;
16593;SDS011;8410;52.532;13.336;2023-08-17T06:27:55;6.35;;;2.38;;
16593;SDS011;8410;52.532;13.336;2023-08-17T06:30:23;2.85;;;1.80;;
16593;SDS011;8410;52.532;13.336;2023-08-17T06:32:52;5.15;;;2.10;;
16593;SDS011;8410;52.532;13.336;2023-08-17T06:35:19;2.53;;;2.10;;
16593;SDS011;8410;52.532;13.336;2023-08-17T06:37:47;3.35;;;2.00;;
16593;SDS011;8410;52.532;13.336;2023-08-17T06:40:14;3.28;;;2.00;;
16593;SDS011;8410;52.532;13.336;2023-08-17T06:42:42;3.08;;;2.40;;
16593;SDS011;8410;52.532;13.336;2023-08-17T06:45:09;2.63;;;2.30;;
16593;SDS011;8410;52.532;13.336;2023-08-17T06:47:37;4.10;;;2.30;;
16593;SDS011;8410;52.532;13.336;2023-08-17T06:50:06;3.70;;;2.25;;
16593;SDS011;8410;52.532;13.336;2023-08-17T06:52:38;4.15;;;2.30;;
16593;SDS011;8410;52.532;13.336;2023-08-17T06:55:07;4.38;;;2.10;;
16593;SDS011;8410;52.532;13.336;2023-08-17T06:57:35;2.47;;;1.98;;
16593;SDS011;8410;52.532;13.336;2023-08-17T07:00:02;2.88;;;2.10;;
16593;SDS011;8410;52.532;13.336;2023-08-17T07:02:32;5.10;;;2.20;;
16593;SDS011;8410;52.532;13.336;2023-08-17T07:05:19;5.38;;;2.05;;
16593;SDS011;8410;52.532;13.336;2023-08-17T07:07:47;3.35;;;2.53;;
16593;SDS011;8410;52.532;13.336;2023-08-17T07:10:15;5.72;;;2.20;;
16593;SDS011;8410;52.532;13.336;2023-08-17T07:12:42;7.18;;;2.63;;
16593;SDS011;8410;52.532;13.336;2023-08-17T07:15:10;3.65;;;2.40;;
16593;SDS011;8410;52.532;13.336;2023-08-17T07:17:38;5.53;;;2.63;;
16593;SDS011;8410;52.532;13.336;2023-08-17T07:20:06;4.45;;;2.45;;
16593;SDS011;8410;52.532;13.336;2023-08-17T07:22:40;5.65;;;3.28;;
16593;SDS011;8410;52.532;13.336;2023-08-17T07:25:07;6.68;;;2.92;;
16593;SDS011;8410;52.532;13.336;2023-08-17T07:27:35;3.78;;;2.47;;
16593;SDS011;8410;52.532;13.336;2023-08-17T07:30:04;3.25;;;2.72;;
16593;SDS011;8410;52.532;13.336;2023-08-17T07:32:33;3.55;;;2.38;;
16593;SDS011;8410;52.532;13.336;2023-08-17T07:35:01;6.47;;;2.72;;
16593;SDS011;8410;52.532;13.336;2023-08-17T07:37:29;5.90;;;2.58;;
16593;SDS011;8410;52.532;13.336;2023-08-17T07:40:01;6.28;;;2.67;;
16593;SDS011;8410;52.532;13.336;2023-08-17T07:42:30;5.15;;;3.03;;
16593;SDS011;8410;52.532;13.336;2023-08-17T07:44:58;5.32;;;2.50;;
16593;SDS011;8410;52.532;13.336;2023-08-17T07:47:25;3.92;;;2.90;;
16593;SDS011;8410;52.532;13.336;2023-08-17T07:49:53;4.53;;;2.38;;
16593;SDS011;8410;52.532;13.336;2023-08-17T07:52:21;5.57;;;3.20;;
16593;SDS011;8410;52.532;13.336;2023-08-17T07:54:48;4.95;;;2.45;;
16593;SDS011;8410;52.532;13.336;2023-08-17T07:57:17;4.72;;;2.42;;
16593;SDS011;8410;52.532;13.336;2023-08-17T07:59:45;3.20;;;2.50;;
16593;SDS011;8410;52.532;13.336;2023-08-17T08:02:13;4.22;;;2.42;;
16593;SDS011;8410;52.532;13.336;2023-08-17T08:04:40;3.80;;;2.60;;
16593;SDS011;8410;52.532;13.336;2023-08-17T08:07:08;6.88;;;2.75;;
16593;SDS011;8410;52.532;13.336;2023-08-17T08:09:35;8.23;;;2.47;;
16593;SDS011;8410;52.532;13.336;2023-08-17T08:12:03;4.18;;;2.50;;
16593;SDS011;8410;52.532;13.336;2023-08-17T08:14:35;4.45;;;2.80;;
16593;SDS011;8410;52.532;13.336;2023-08-17T08:17:03;17.67;;;2.75;;
16593;SDS011;8410;52.532;13.336;2023-08-17T08:19:30;4.53;;;2.70;;
16593;SDS011;8410;52.532;13.336;2023-08-17T08:21:59;3.95;;;2.50;;
16593;SDS011;8410;52.532;13.336;2023-08-17T08:24:28;4.40;;;2.65;;
16593;SDS011;8410;52.532;13.336;2023-08-17T08:27:03;3.92;;;2.38;;
16593;SDS011;8410;52.532;13.336;2023-08-17T08:29:31;4.13;;;2.63;;
16593;SDS011;8410;52.532;13.336;2023-08-17T08:32:01;3.75;;;2.92;;
16593;SDS011;8410;52.532;13.336;2023-08-17T08:34:29;5.35;;;2.90;;
16593;SDS011;8410;52.532;13.336;2023-08-17T08:36:57;5.85;;;3.10;;
16593;SDS011;8410;52.532;13.336;2023-08-17T08:39:25;3.10;;;2.65;;
16593;SDS011;8410;52.532;13.336;2023-08-17T08:41:53;2.90;;;2.63;;
16593;SDS011;8410;52.532;13.336;2023-08-17T08:44:21;2.67;;;2.40;;
16593;SDS011;8410;52.532;13.336;2023-08-17T08:46:49;4.20;;;2.88;;
16593;SDS011;8410;52.532;13.336;2023-08-17T08:49:22;5.00;;;3.08;;
16593;SDS011;8410;52.532;13.336;2023-08-17T08:51:50;3.63;;;3.03;;
16593;SDS011;8410;52.532;13.336;2023-08-17T08:54:20;4.30;;;3.17;;
16593;SDS011;8410;52.532;13.336;2023-08-17T08:56:51;3.85;;;2.60;;
16593;SDS011;8410;52.532;13.336;2023-08-17T08:59:25;4.78;;;3.40;;
16593;SDS011;8410;52.532;13.336;2023-08-17T09:01:54;4.55;;;3.38;;
16593;SDS011;8410;52.532;13.336;2023-08-17T09:04:24;4.43;;;3.45;;
16593;SDS011;8410;52.532;13.336;2023-08-17T09:06:52;7.28;;;3.30;;
16593;SDS011;8410;52.532;13.336;2023-08-17T09:09:21;4.22;;;3.25;;
16593;SDS011;8410;52.532;13.336;2023-08-17T09:11:54;5.75;;;3.58;;
16593;SDS011;8410;52.532;13.336;2023-08-17T09:14:22;6.97;;;3.83;;
16593;SDS011;8410;52.532;13.336;2023-08-17T09:16:49;3.78;;;3.28;;
16593;SDS011;8410;52.532;13.336;2023-08-17T09:19:17;3.83;;;3.10;;
16593;SDS011;8410;52.532;13.336;2023-08-17T09:21:47;5.28;;;2.92;;
16593;SDS011;8410;52.532;13.336;2023-08-17T09:24:16;3.28;;;2.95;;
16593;SDS011;8410;52.532;13.336;2023-08-17T09:26:44;5.25;;;3.50;;
16593;SDS011;8410;52.532;13.336;2023-08-17T09:29:17;3.60;;;3.30;;
16593;SDS011;8410;52.532;13.336;2023-08-17T09:31:46;4.20;;;3.50;;
16593;SDS011;8410;52.532;13.336;2023-08-17T09:34:14;5.25;;;2.85;;
16593;SDS011;8410;52.532;13.336;2023-08-17T09:36:46;5.05;;;3.15;;
16593;SDS011;8410;52.532;13.336;2023-08-17T09:39:15;4.15;;;3.00;;
16593;SDS011;8410;52.532;13.336;2023-08-17T09:41:42;4.78;;;3.50;;
16593;SDS011;8410;52.532;13.336;2023-08-17T09:44:11;4.68;;;3.15;;
16593;SDS011;8410;52.532;13.336;2023-08-17T09:46:39;4.20;;;3.17;;
16593;SDS011;8410;52.532;13.336;2023-08-17T09:49:09;6.88;;;3.47;;
16593;SDS011;8410;52.532;13.336;2023-08-17T09:51:36;5.22;;;3.30;;
16593;SDS011;8410;52.532;13.336;2023-08-17T09:54:09;7.78;;;3.40;;
16593;SDS011;8410;52.532;13.336;2023-08-17T09:56:47;4.47;;;2.85;;
16593;SDS011;8410;52.532;13.336;2023-08-17T09:59:16;7.57;;;3.35;;
16593;SDS011;8410;52.532;13.336;2023-08-17T10:01:44;5.47;;;3.35;;
16593;SDS011;8410;52.532;13.336;2023-08-17T10:04:22;5.88;;;3.40;;
16593;SDS011;8410;52.532;13.336;2023-08-17T10:06:52;5.85;;;3.20;;
16593;SDS011;8410;52.532;13.336;2023-08-17T10:09:28;6.00;;;3.25;;
16593;SDS011;8410;52.532;13.336;2023-08-17T10:12:00;3.75;;;3.10;;
16593;SDS011;8410;52.532;13.336;2023-08-17T10:14:34;7.50;;;3.38;;
16593;SDS011;8410;52.532;13.336;2023-08-17T10:17:06;4.68;;;3.10;;
16593;SDS011;8410;52.532;13.336;2023-08-17T10:19:42;4.70;;;2.90;;
16593;SDS011;8410;52.532;13.336;2023-08-17T10:22:15;3.70;;;3.13;;
16593;SDS011;8410;52.532;13.336;2023-08-17T10:24:47;5.45;;;3.70;;
16593;SDS011;8410;52.532;13.336;2023-08-17T10:27:16;5.63;;;2.80;;
16593;SDS011;8410;52.532;13.336;2023-08-17T10:29:44;3.17;;;2.88;;
16593;SDS011;8410;52.532;13.336;2023-08-17T10:32:12;6.28;;;3.42;;
16593;SDS011;8410;52.532;13.336;2023-08-17T10:34:42;4.15;;;3.03;;
16593;SDS011;8410;52.532;13.336;2023-08-17T10:37:11;3.55;;;2.97;;
16593;SDS011;8410;52.532;13.336;2023-08-17T10:39:44;3.85;;;3.33;;
16593;SDS011;8410;52.532;13.336;2023-08-17T10:42:14;4.75;;;3.13;;
16593;SDS011;8410;52.532;13.336;2023-08-17T10:44:46;3.17;;;2.88;;
16593;SDS011;8410;52.532;13.336;2023-08-17T10:47:24;4.38;;;3.38;;
16593;SDS011;8410;52.532;13.336;2023-08-17T10:50:02;7.60;;;3.35;;
16593;SDS011;8410;52.532;13.336;2023-08-17T10:52:31;3.88;;;3.20;;
16593;SDS011;8410;52.532;13.336;2023-08-17T10:55:00;5.70;;;3.78;;
16593;SDS011;8410;52.532;13.336;2023-08-17T10:57:33;3.85;;;3.55;;
16593;SDS011;8410;52.532;13.336;2023-08-17T11:00:06;5.03;;;4.00;;
16593;SDS011;8410;52.532;13.336;2023-08-17T11:02:51;4.00;;;3.47;;
16593;SDS011;8410;52.532;13.336;2023-08-17T11:05:36;7.25;;;3.35;;
16593;SDS011;8410;52.532;13.336;2023-08-17T11:08:05;7.22;;;3.97;;
16593;SDS011;8410;52.532;13.336;2023-08-17T11:10:35;5.35;;;3.67;;
16593;SDS011;8410;52.532;13.336;2023-08-17T11:13:06;3.40;;;3.05;;
16593;SDS011;8410;52.532;13.336;2023-08-17T11:15:37;5.28;;;3.35;;
16593;SDS011;8410;52.532;13.336;2023-08-17T11:18:08;4.00;;;3.63;;
16593;SDS011;8410;52.532;13.336;2023-08-17T11:20:37;4.63;;;3.92;;
16593;SDS011;8410;52.532;13.336;2023-08-17T11:23:06;3.90;;;3.50;;
16593;SDS011;8410;52.532;13.336;2023-08-17T11:25:34;4.95;;;3.40;;
16593;SDS011;8410;52.532;13.336;2023-08-17T11:28:03;3.53;;;3.22;;
16593;SDS011;8410;52.532;13.336;2023-08-17T11:30:35;6.47;;;3.95;;
16593;SDS011;8410;52.532;13.336;2023-08-17T11:33:05;4.15;;;3.15;;
16593;SDS011;8410;52.532;13.336;2023-08-17T11:35:34;7.10;;;3.58;;
16593;SDS011;8410;52.532;13.336;2023-08-17T11:38:01;9.20;;;3.75;;
16593;SDS011;8410;52.532;13.336;2023-08-17T11:40:34;4.22;;;3.47;;
16593;SDS011;8410;52.532;13.336;2023-08-17T11:43:02;4.18;;;3.78;;
16593;SDS011;8410;52.532;13.336;2023-08-17T11:45:31;8.05;;;3.95;;
16593;SDS011;8410;52.532;13.336;2023-08-17T11:47:59;4.13;;;3.80;;
16593;SDS011;8410;52.532;13.336;2023-08-17T11:50:27;3.97;;;3.63;;
16593;SDS011;8410;52.532;13.336;2023-08-17T11:52:55;7.25;;;3.72;;
16593;SDS011;8410;52.532;13.336;2023-08-17T11:55:26;6.82;;;3.78;;
16593;SDS011;8410;52.532;13.336;2023-08-17T11:57:53;5.15;;;3.45;;
16593;SDS011;8410;52.532;13.336;2023-08-17T12:00:21;4.47;;;3.45;;
16593;SDS011;8410;52.532;13.336;2023-08-17T12:02:53;5.38;;;4.15;;
16593;SDS011;8410;52.532;13.336;2023-08-17T12:05:20;4.13;;;3.72;;
16593;SDS011;8410;52.532;13.336;2023-08-17T12:07:49;4.22;;;3.53;;
16593;SDS011;8410;52.532;13.336;2023-08-17T12:10:17;7.13;;;4.32;;
16593;SDS011;8410;52.532;13.336;2023-08-17T12:12:46;7.78;;;4.20;;
16593;SDS011;8410;52.532;13.336;2023-08-17T12:15:14;3.85;;;3.50;;
16593;SDS011;8410;52.532;13.336;2023-08-17T12:17:46;4.78;;;3.80;;
16593;SDS011;8410;52.532;13.336;2023-08-17T12:20:18;4.60;;;4.15;;
16593;SDS011;8410;52.532;13.336;2023-08-17T12:22:47;4.85;;;4.13;;
16593;SDS011;8410;52.532;13.336;2023-08-17T12:25:14;4.80;;;3.83;;
16593;SDS011;8410;52.532;13.336;2023-08-17T12:27:42;4.93;;;4.50;;
16593;SDS011;8410;52.532;13.336;2023-08-17T12:30:13;4.40;;;4.00;;
16593;SDS011;8410;52.532;13.336;2023-08-17T12:32:50;4.20;;;3.80;;
16593;SDS011;8410;52.532;13.336;2023-08-17T12:35:21;5.68;;;4.15;;
16593;SDS011;8410;52.532;13.336;2023-08-17T12:37:51;5.78;;;4.03;;
16593;SDS011;8410;52.532;13.336;2023-08-17T12:40:18;5.60;;;4.13;;
16593;SDS011;8410;52.532;13.336;2023-08-17T12:42:46;5.22;;;4.68;;
16593;SDS011;8410;52.532;13.336;2023-08-17T12:45:14;5.75;;;4.75;;
16593;SDS011;8410;52.532;13.336;2023-08-17T12:47:42;6.53;;;4.68;;
16593;SDS011;8410;52.532;13.336;2023-08-17T12:50:10;6.10;;;4.53;;
16593;SDS011;8410;52.532;13.336;2023-08-17T12:52:38;8.23;;;5.35;;
16593;SDS011;8410;52.532;13.336;2023-08-17T12:55:11;5.03;;;4.53;;
16593;SDS011;8410;52.532;13.336;2023-08-17T12:57:39;5.15;;;4.45;;
16593;SDS011;8410;52.532;13.336;2023-08-17T13:00:06;4.80;;;4.40;;
16593;SDS011;8410;52.532;13.336;2023-08-17T13:02:35;5.35;;;4.90;;
16593;SDS011;8410;52.532;13.336;2023-08-17T13:05:03;5.25;;;4.68;;
16593;SDS011;8410;52.532;13.336;2023-08-17T13:07:30;5.18;;;4.72;;
16593;SDS011;8410;52.532;13.336;2023-08-17T13:09:59;4.75;;;4.45;;
16593;SDS011;8410;52.532;13.336;2023-08-17T13:12:27;6.45;;;4.80;;
16593;SDS011;8410;52.532;13.336;2023-08-17T13:14:54;4.85;;;4.40;;
16593;SDS011;8410;52.532;13.336;2023-08-17T13:17:22;5.45;;;4.95;;
16593;SDS011;8410;52.532;13.336;2023-08-17T13:19:49;4.82;;;4.43;;
16593;SDS011;8410;52.532;13.336;2023-08-17T13:22:17;5.00;;;4.60;;
16593;SDS011;8410;52.532;13.336;2023-08-17T13:24:44;5.25;;;4.35;;
16593;SDS011;8410;52.532;13.336;2023-08-17T13:27:13;4.38;;;3.97;;
16593;SDS011;8410;52.532;13.336;2023-08-17T13:29:40;4.90;;;4.40;;
16593;SDS011;8410;52.532;13.336;2023-08-17T13:32:08;5.22;;;4.80;;
16593;SDS011;8410;52.532;13.336;2023-08-17T13:34:36;4.78;;;4.18;;
16593;SDS011;8410;52.532;13.336;2023-08-17T13:37:03;13.43;;;4.50;;
16593;SDS011;8410;52.532;13.336;2023-08-17T13:39:31;4.30;;;4.00;;
16593;SDS011;8410;52.532;13.336;2023-08-17T13:41:59;4.72;;;4.30;;
16593;SDS011;8410;52.532;13.336;2023-08-17T13:44:27;4.72;;;4.32;;
16593;SDS011;8410;52.532;13.336;2023-08-17T13:46:55;4.70;;;4.30;;
16593;SDS011;8410;52.532;13.336;2023-08-17T13:49:22;5.80;;;4.72;;
16593;SDS011;8410;52.532;13.336;2023-08-17T13:51:50;4.28;;;3.88;;
16593;SDS011;8410;52.532;13.336;2023-08-17T13:54:18;7.65;;;7.05;;
16593;SDS011;8410;52.532;13.336;2023-08-17T13:56:45;4.88;;;4.38;;
16593;SDS011;8410;52.532;13.336;2023-08-17T13:59:13;4.70;;;4.30;;
16593;SDS011;8410;52.532;13.336;2023-08-17T14:01:41;4.70;;;4.30;;
16593;SDS011;8410;52.532;13.336;2023-08-17T14:04:09;5.32;;;4.47;;
16593;SDS011;8410;52.532;13.336;2023-08-17T14:06:38;4.43;;;4.13;;
16593;SDS011;8410;52.532;13.336;2023-08-17T14:09:07;4.82;;;4.43;;
16593;SDS011;8410;52.532;13.336;2023-08-17T14:11:34;5.57;;;5.07;;
16593;SDS011;8410;52.532;13.336;2023-08-17T14:14:02;5.45;;;5.05;;
16593;SDS011;8410;52.532;13.336;2023-08-17T14:16:29;4.88;;;4.47;;
16593;SDS011;8410;52.532;13.336;2023-08-17T14:18:58;4.90;;;4.18;;
16593;SDS011;8410;52.532;13.336;2023-08-17T14:21:26;5.10;;;4.70;;
16593;SDS011;8410;52.532;13.336;2023-08-17T14:23:53;4.57;;;4.18;;
16593;SDS011;8410;52.532;13.336;2023-08-17T14:26:21;5.13;;;4.68;;
16593;SDS011;8410;52.532;13.336;2023-08-17T14:28:48;5.15;;;4.75;;
16593;SDS011;8410;52.532;13.336;2023-08-17T14:31:16;4.72;;;4.32;;
16593;SDS011;8410;52.532;13.336;2023-08-17T14:33:44;4.68;;;4.28;;
16593;SDS011;8410;52.532;13.336;2023-08-17T14:36:15;7.85;;;4.18;;
16593;SDS011;8410;52.532;13.336;2023-08-17T14:38:46;6.22;;;4.10;;
16593;SDS011;8410;52.532;13.336;2023-08-17T14:41:13;4.35;;;3.97;;
16593;SDS011;8410;52.532;13.336;2023-08-17T14:43:41;4.50;;;4.07;;
16593;SDS011;8410;52.532;13.336;2023-08-17T14:46:08;7.55;;;4.18;;
16593;SDS011;8410;52.532;13.336;2023-08-17T14:48:40;4.53;;;4.10;;
16593;SDS011;8410;52.532;13.336;2023-08-17T14:51:08;5.10;;;3.97;;
16593;SDS011;8410;52.532;13.336;2023-08-17T14:53:37;4.00;;;3.70;;
16593;SDS011;8410;52.532;13.336;2023-08-17T14:56:05;4.07;;;3.67;;
16593;SDS011;8410;52.532;13.336;2023-08-17T14:58:33;9.23;;;4.40;;